createdAt,value
2023-08-04T00:02:27.541Z,4.20
2023-08-04T00:04:59.996Z,3.80
2023-08-04T00:07:32.439Z,3.90
2023-08-04T00:10:05.847Z,3.20
2023-08-04T00:12:38.308Z,4.00
2023-08-04T00:15:12.033Z,4.50
2023-08-04T00:17:44.707Z,4.00
2023-08-04T00:20:17.032Z,4.60
2023-08-04T00:22:49.669Z,3.90
2023-08-04T00:25:22.666Z,3.60
2023-08-04T00:27:55.109Z,4.30
2023-08-04T00:30:27.469Z,3.50
2023-08-04T00:33:00.064Z,3.60
2023-08-04T00:35:32.591Z,4.30
2023-08-04T00:38:05.267Z,3.90
2023-08-04T00:40:37.784Z,4.00
2023-08-04T00:43:10.280Z,3.90
2023-08-04T00:45:43.266Z,4.00
2023-08-04T00:48:15.892Z,4.00
2023-08-04T00:50:48.163Z,3.60
2023-08-04T00:53:22.188Z,3.90
2023-08-04T00:55:54.710Z,4.40
2023-08-04T00:58:27.059Z,4.70
2023-08-04T01:00:59.774Z,4.20
2023-08-04T01:03:32.457Z,3.70
2023-08-04T01:06:13.192Z,4.20
2023-08-04T01:08:49.887Z,4.30
2023-08-04T01:11:24.010Z,3.70
2023-08-04T01:13:56.578Z,4.60
2023-08-04T01:16:28.924Z,4.20
2023-08-04T01:19:03.399Z,5.00
2023-08-04T01:21:44.349Z,5.10
2023-08-04T01:24:17.661Z,4.90
2023-08-04T01:26:52.124Z,5.10
2023-08-04T01:29:24.772Z,4.70
2023-08-04T01:31:57.653Z,4.90
2023-08-04T01:34:30.468Z,4.70
2023-08-04T01:37:02.795Z,4.50
2023-08-04T01:39:35.493Z,4.30
2023-08-04T01:42:08.804Z,4.50
2023-08-04T01:44:41.075Z,5.00
2023-08-04T01:47:13.889Z,5.30
2023-08-04T01:49:46.344Z,4.70
2023-08-04T01:52:18.850Z,4.80
2023-08-04T01:54:51.370Z,5.30
2023-08-04T01:57:23.953Z,5.10
2023-08-04T01:59:56.375Z,4.60
2023-08-04T02:02:29.359Z,5.00
2023-08-04T02:05:04.724Z,4.50
2023-08-04T02:07:37.589Z,4.70
2023-08-04T02:10:11.669Z,4.60
2023-08-04T02:15:59.643Z,4.50
2023-08-04T02:18:32.105Z,4.60
2023-08-04T02:21:06.197Z,4.80
2023-08-04T02:23:38.863Z,4.90
2023-08-04T02:26:11.571Z,5.30
2023-08-04T02:28:43.993Z,5.20
2023-08-04T02:31:16.349Z,5.10
2023-08-04T02:33:49.187Z,4.40
2023-08-04T02:36:21.687Z,4.70
2023-08-04T02:39:03.843Z,4.50
2023-08-04T02:41:36.481Z,4.60
2023-08-04T02:44:08.866Z,4.60
2023-08-04T02:46:41.873Z,5.20
2023-08-04T02:49:14.822Z,5.00
2023-08-04T02:51:47.451Z,5.10
2023-08-04T02:54:19.986Z,4.80
2023-08-04T02:56:52.438Z,4.90
2023-08-04T02:59:25.458Z,4.10
2023-08-04T03:01:57.769Z,4.70
2023-08-04T03:04:30.196Z,5.10
2023-08-04T03:07:02.596Z,5.20
2023-08-04T03:09:35.077Z,6.40
2023-08-04T03:12:10.498Z,5.00
2023-08-04T03:14:43.004Z,4.70
2023-08-04T03:17:15.495Z,4.60
2023-08-04T03:19:47.889Z,4.70
2023-08-04T03:22:20.470Z,5.20
2023-08-04T03:24:52.971Z,4.80
2023-08-04T03:27:26.245Z,4.70
2023-08-04T03:29:58.990Z,5.10
2023-08-04T03:32:31.409Z,4.40
2023-08-04T03:35:04.757Z,4.80
2023-08-04T03:37:37.808Z,4.30
2023-08-04T03:40:12.515Z,4.90
2023-08-04T03:45:15.816Z,4.40
2023-08-04T03:47:48.372Z,4.80
2023-08-04T03:50:21.517Z,5.50
2023-08-04T03:52:54.150Z,4.80
2023-08-04T03:55:27.263Z,4.70
2023-08-04T03:58:00.062Z,4.50
2023-08-04T04:00:33.053Z,4.70
2023-08-04T04:03:06.556Z,5.40
2023-08-04T04:05:39.862Z,5.00
2023-08-04T04:08:12.345Z,5.20
2023-08-04T04:10:44.890Z,4.40
2023-08-04T04:13:17.670Z,4.20
2023-08-04T04:15:50.193Z,4.80
2023-08-04T04:18:22.609Z,4.70
2023-08-04T04:20:54.931Z,5.70
2023-08-04T04:23:27.488Z,5.10
2023-08-04T04:26:00.185Z,4.60
2023-08-04T04:28:33.473Z,4.90
2023-08-04T04:31:06.324Z,4.50
2023-08-04T04:33:39.392Z,5.20
2023-08-04T04:36:11.955Z,4.90
2023-08-04T04:38:44.668Z,4.30
2023-08-04T04:41:17.529Z,5.50
2023-08-04T04:43:49.985Z,4.70
2023-08-04T04:46:22.609Z,5.10
2023-08-04T04:48:55.519Z,5.00
2023-08-04T04:51:30.973Z,4.30
2023-08-04T04:54:03.910Z,4.80
2023-08-04T04:56:36.613Z,4.50
2023-08-04T04:59:09.493Z,4.90
2023-08-04T05:01:42.428Z,4.70
2023-08-04T05:04:15.147Z,4.30
2023-08-04T05:06:48.937Z,4.90
2023-08-04T05:09:21.278Z,4.40
2023-08-04T05:11:53.543Z,5.20
2023-08-04T05:14:25.892Z,4.90
2023-08-04T05:16:58.173Z,4.40
2023-08-04T05:19:30.536Z,5.00
2023-08-04T05:22:02.913Z,4.80
2023-08-04T05:24:35.391Z,4.40
2023-08-04T05:27:08.408Z,4.70
2023-08-04T05:29:41.067Z,4.50
2023-08-04T05:32:13.478Z,4.70
2023-08-04T05:34:45.849Z,4.30
2023-08-04T05:37:18.247Z,5.00
2023-08-04T05:39:50.580Z,5.10
2023-08-04T05:42:23.091Z,4.60
2023-08-04T05:44:55.404Z,5.10
2023-08-04T05:47:29.091Z,5.50
2023-08-04T05:50:01.400Z,4.40
2023-08-04T05:52:34.223Z,4.50
2023-08-04T05:55:07.355Z,4.80
2023-08-04T05:57:39.789Z,4.70
2023-08-04T06:00:14.127Z,4.50
2023-08-04T06:02:47.231Z,4.50
2023-08-04T06:05:27.706Z,4.50
2023-08-04T06:08:00.290Z,4.10
2023-08-04T06:10:32.779Z,4.00
2023-08-04T06:13:06.172Z,5.00
2023-08-04T06:15:38.538Z,4.60
2023-08-04T06:18:11.400Z,4.50
2023-08-04T06:20:43.884Z,3.50
2023-08-04T06:23:16.365Z,4.10
2023-08-04T06:25:49.464Z,4.60
2023-08-04T06:28:22.322Z,4.10
2023-08-04T06:30:55.174Z,4.60
2023-08-04T06:33:27.782Z,4.70
2023-08-04T06:36:02.678Z,4.80
2023-08-04T06:38:34.998Z,4.40
2023-08-04T06:41:07.401Z,5.10
2023-08-04T06:43:41.230Z,4.90
2023-08-04T06:46:13.718Z,4.50
2023-08-04T06:48:46.057Z,4.80
2023-08-04T06:51:18.437Z,4.60
2023-08-04T06:53:50.908Z,4.20
2023-08-04T06:56:23.660Z,4.50
2023-08-04T06:58:57.670Z,4.30
2023-08-04T07:01:30.156Z,4.20
2023-08-04T07:04:02.767Z,4.00
2023-08-04T07:06:35.557Z,4.20
2023-08-04T07:09:08.556Z,4.30
2023-08-04T07:11:41.601Z,4.30
2023-08-04T07:14:14.120Z,4.00
2023-08-04T07:16:47.846Z,4.10
2023-08-04T07:19:20.457Z,3.80
2023-08-04T07:21:53.114Z,4.00
2023-08-04T07:24:27.140Z,4.10
2023-08-04T07:27:02.247Z,4.40
2023-08-04T07:29:36.019Z,3.90
2023-08-04T07:32:10.997Z,3.70
2023-08-04T07:34:43.438Z,4.20
2023-08-04T07:37:15.916Z,4.50
2023-08-04T07:39:48.276Z,4.10
2023-08-04T07:42:20.589Z,4.10
2023-08-04T07:44:52.945Z,5.50
2023-08-04T07:47:25.425Z,4.30
2023-08-04T07:49:58.091Z,4.10
2023-08-04T07:52:30.739Z,3.80
2023-08-04T07:55:03.137Z,4.50
2023-08-04T07:57:36.364Z,4.40
2023-08-04T08:00:12.495Z,3.70
2023-08-04T08:02:45.218Z,3.70
2023-08-04T08:05:18.179Z,3.50
2023-08-04T08:07:51.564Z,3.70
2023-08-04T08:10:25.386Z,4.00
2023-08-04T08:12:58.257Z,3.60
2023-08-04T08:15:30.924Z,4.10
2023-08-04T08:18:04.421Z,4.40
2023-08-04T08:20:37.144Z,4.00
2023-08-04T08:23:09.655Z,3.80
2023-08-04T08:25:42.776Z,4.20
2023-08-04T08:28:15.325Z,4.40
2023-08-04T08:30:48.025Z,4.00
2023-08-04T08:33:20.937Z,3.50
2023-08-04T08:35:53.814Z,3.90
2023-08-04T08:38:26.801Z,4.20
2023-08-04T08:40:59.258Z,4.50
2023-08-04T08:43:32.072Z,3.70
2023-08-04T08:46:05.020Z,3.70
2023-08-04T08:48:40.959Z,4.10
2023-08-04T08:51:19.130Z,4.20
2023-08-04T08:53:52.213Z,3.20
2023-08-04T08:56:24.706Z,2.90
2023-08-04T08:58:57.911Z,2.50
2023-08-04T09:01:30.757Z,3.30
2023-08-04T09:04:04.709Z,2.70
2023-08-04T09:06:37.395Z,3.30
2023-08-04T09:09:10.056Z,2.20
2023-08-04T09:11:42.752Z,2.10
2023-08-04T09:14:15.520Z,2.50
2023-08-04T09:16:50.082Z,2.60
2023-08-04T09:19:22.712Z,2.20
2023-08-04T09:22:00.573Z,2.60
2023-08-04T09:27:45.361Z,2.50
2023-08-04T09:30:19.051Z,2.00
2023-08-04T09:32:52.889Z,2.20
2023-08-04T09:35:25.804Z,2.20
2023-08-04T09:38:00.017Z,1.90
2023-08-04T09:43:58.550Z,1.90
2023-08-04T09:46:31.424Z,2.20
2023-08-04T09:49:04.170Z,2.40
2023-08-04T09:51:43.060Z,2.20
2023-08-04T09:54:16.173Z,2.80
2023-08-04T09:56:48.751Z,1.90
2023-08-04T09:59:22.337Z,2.20
2023-08-04T10:01:55.086Z,2.20
2023-08-04T10:04:28.523Z,1.90
2023-08-04T10:07:01.036Z,2.10
2023-08-04T10:09:34.940Z,1.90
2023-08-04T10:12:08.875Z,2.10
2023-08-04T10:14:41.240Z,2.10
2023-08-04T10:17:13.725Z,2.50
2023-08-04T10:19:46.379Z,2.10
2023-08-04T10:22:19.070Z,2.10
2023-08-04T10:24:51.863Z,2.50
2023-08-04T10:27:25.120Z,1.80
2023-08-04T10:30:13.483Z,2.20
2023-08-04T10:32:49.192Z,2.20
2023-08-04T10:35:23.126Z,2.10
2023-08-04T10:40:34.876Z,1.90
2023-08-04T10:43:10.126Z,1.70
2023-08-04T10:45:56.911Z,2.60
2023-08-04T10:48:30.604Z,2.10
2023-08-04T10:51:03.134Z,2.60
2023-08-04T10:53:35.470Z,2.30
2023-08-04T10:56:09.302Z,2.20
2023-08-04T10:58:42.612Z,2.20
2023-08-04T11:01:19.880Z,2.90
2023-08-04T11:03:55.401Z,2.20
2023-08-04T11:06:28.084Z,2.00
2023-08-04T11:09:02.128Z,2.00
2023-08-04T11:11:35.869Z,2.70
2023-08-04T11:14:10.250Z,2.50
2023-08-04T11:16:42.872Z,2.50
2023-08-04T11:19:15.692Z,2.20
2023-08-04T11:21:49.192Z,2.90
2023-08-04T11:24:25.830Z,2.40
2023-08-04T11:26:58.720Z,3.20
2023-08-04T11:29:49.004Z,3.20
2023-08-04T11:32:23.399Z,2.10
2023-08-04T11:34:57.739Z,2.00
2023-08-04T11:40:01.236Z,2.30
2023-08-04T11:42:36.261Z,2.00
2023-08-04T11:45:13.191Z,1.90
2023-08-04T11:47:46.576Z,1.90
2023-08-04T11:53:21.822Z,2.40
2023-08-04T11:55:59.240Z,2.00
2023-08-04T11:58:36.478Z,1.70
2023-08-04T12:01:26.399Z,2.10
2023-08-04T12:03:59.680Z,2.30
2023-08-04T13:18:05.520Z,4.00
2023-08-04T13:20:40.477Z,2.20
2023-08-04T13:23:13.125Z,2.70
2023-08-04T13:25:46.095Z,1.60
2023-08-04T13:31:03.391Z,2.10
2023-08-04T13:36:44.151Z,2.00
2023-08-04T13:39:16.607Z,2.20
2023-08-04T13:41:49.705Z,2.20
2023-08-04T13:44:23.514Z,2.10
2023-08-04T13:46:58.726Z,2.70
2023-08-04T13:49:32.160Z,2.20
2023-08-04T13:52:05.210Z,2.30
2023-08-04T13:54:39.038Z,2.10
2023-08-04T14:00:13.840Z,2.30
2023-08-04T14:02:46.417Z,2.20
2023-08-04T14:05:19.115Z,2.60
2023-08-04T14:07:51.829Z,2.10
2023-08-04T14:10:24.794Z,2.20
2023-08-04T14:12:57.605Z,1.90
2023-08-04T14:15:31.464Z,1.70
2023-08-04T14:18:11.365Z,2.20
2023-08-04T14:20:44.216Z,1.90
2023-08-04T14:23:16.997Z,2.30
2023-08-04T14:25:50.729Z,1.90
2023-08-04T14:28:23.445Z,1.70
2023-08-04T14:33:50.299Z,2.30
2023-08-04T14:36:22.839Z,3.30
2023-08-04T14:38:55.701Z,3.00
2023-08-04T14:41:28.252Z,2.20
2023-08-04T14:44:00.727Z,2.70
2023-08-04T14:46:33.485Z,2.40
2023-08-04T14:49:07.143Z,3.90
2023-08-04T14:51:40.192Z,1.80
2023-08-04T14:54:12.769Z,1.80
2023-08-04T14:56:45.211Z,1.80
2023-08-04T14:59:18.285Z,2.40
2023-08-04T15:01:51.348Z,2.00
2023-08-04T15:04:24.308Z,1.90
2023-08-04T15:06:56.981Z,1.60
2023-08-04T15:09:30.253Z,2.30
2023-08-04T15:12:03.254Z,2.30
2023-08-04T15:14:35.946Z,2.50
2023-08-04T15:17:09.276Z,2.80
2023-08-04T15:19:43.355Z,1.80
2023-08-04T15:22:17.532Z,1.60
2023-08-04T15:24:50.281Z,2.20
2023-08-04T15:27:31.858Z,1.90
2023-08-04T15:30:04.658Z,1.90
2023-08-04T15:32:37.714Z,1.80
2023-08-04T15:35:11.687Z,1.80
2023-08-04T15:37:44.589Z,1.80
2023-08-04T15:40:17.746Z,2.10
2023-08-04T15:42:50.379Z,2.10
2023-08-04T15:45:23.079Z,2.10
2023-08-04T15:47:55.616Z,2.30
2023-08-04T15:50:48.026Z,2.20
2023-08-04T15:53:22.390Z,2.20
2023-08-04T15:59:12.606Z,2.70
2023-08-04T16:01:45.636Z,2.10
2023-08-04T16:07:23.199Z,2.00
2023-08-04T16:09:58.688Z,2.20
2023-08-04T16:12:31.615Z,2.50
2023-08-04T16:15:04.336Z,1.90
2023-08-04T16:17:37.179Z,1.90
2023-08-04T16:20:11.331Z,2.50
2023-08-04T16:22:45.871Z,2.00
2023-08-04T16:27:50.011Z,3.00
2023-08-04T16:30:22.495Z,4.40
2023-08-04T16:32:55.057Z,3.00
2023-08-04T16:35:27.529Z,2.20
2023-08-04T16:38:00.223Z,2.30
2023-08-04T16:40:32.970Z,2.40
2023-08-04T16:43:05.705Z,2.20
2023-08-04T16:45:38.806Z,2.30
2023-08-04T16:48:11.478Z,2.10
2023-08-04T16:50:44.077Z,3.00
2023-08-04T16:53:16.802Z,2.90
2023-08-04T16:55:53.196Z,2.70
2023-08-04T16:58:25.617Z,3.60
2023-08-04T17:01:00.586Z,5.50
2023-08-04T17:03:33.394Z,3.10
2023-08-04T17:06:13.544Z,2.80
2023-08-04T17:08:46.257Z,3.40
2023-08-04T17:11:18.648Z,2.90
2023-08-04T17:13:50.965Z,3.00
2023-08-04T17:16:23.741Z,3.80
2023-08-04T17:18:56.834Z,2.20
2023-08-04T17:21:31.449Z,2.60
2023-08-04T17:24:04.390Z,1.80
2023-08-04T17:29:20.675Z,2.90
2023-08-04T17:31:53.226Z,2.00
2023-08-04T17:34:25.855Z,2.50
2023-08-04T17:36:58.221Z,1.70
2023-08-04T17:39:30.813Z,2.10
2023-08-04T17:42:03.380Z,2.10
2023-08-04T17:44:35.763Z,2.20
2023-08-04T17:47:08.858Z,2.10
2023-08-04T17:49:41.472Z,2.20
2023-08-04T17:52:14.687Z,2.40
2023-08-04T17:54:47.655Z,2.00
2023-08-04T17:57:20.457Z,2.20
2023-08-04T17:59:55.420Z,2.00
2023-08-04T18:02:28.459Z,1.90
2023-08-04T18:05:01.291Z,2.70
2023-08-04T18:07:33.876Z,2.00
2023-08-04T18:10:08.124Z,2.20
2023-08-04T18:12:40.574Z,1.90
2023-08-04T18:15:13.557Z,2.30
2023-08-04T18:17:45.928Z,2.00
2023-08-04T18:20:18.294Z,1.80
2023-08-04T18:22:50.716Z,1.90
2023-08-04T18:25:23.416Z,2.70
2023-08-04T18:27:59.132Z,2.60
2023-08-04T18:30:32.310Z,2.30
2023-08-04T18:33:07.036Z,2.70
2023-08-04T18:35:41.272Z,2.20
2023-08-04T18:38:13.661Z,2.00
2023-08-04T18:40:46.186Z,2.50
2023-08-04T18:43:18.470Z,2.60
2023-08-04T18:45:50.873Z,2.30
2023-08-04T18:48:23.589Z,2.40
2023-08-04T18:50:56.157Z,2.20
2023-08-04T18:53:29.074Z,2.50
2023-08-04T18:56:09.241Z,2.30
2023-08-04T18:58:41.818Z,2.10
2023-08-04T19:01:14.370Z,1.60
2023-08-04T19:03:46.864Z,1.50
2023-08-04T19:06:20.095Z,1.60
2023-08-04T19:08:52.681Z,1.70
2023-08-04T19:14:26.880Z,1.60
2023-08-04T19:17:04.221Z,1.80
2023-08-04T19:19:36.910Z,1.80
2023-08-04T19:22:10.098Z,1.50
2023-08-04T19:24:46.416Z,1.40
2023-08-04T19:27:18.988Z,1.30
2023-08-04T19:29:51.592Z,1.40
2023-08-04T19:32:23.953Z,1.70
2023-08-04T19:34:56.307Z,1.70
2023-08-04T19:37:28.601Z,1.30
2023-08-04T19:40:01.260Z,1.70
2023-08-04T19:42:33.792Z,1.60
2023-08-04T19:45:06.942Z,1.40
2023-08-04T19:47:39.598Z,2.00
2023-08-04T19:50:13.294Z,1.90
2023-08-04T19:52:45.680Z,1.80
2023-08-04T19:55:28.882Z,1.40
2023-08-04T19:58:10.645Z,1.60
2023-08-04T20:00:43.738Z,1.70
2023-08-04T20:03:16.277Z,2.20
2023-08-04T20:05:48.725Z,2.40
2023-08-04T20:08:22.204Z,1.40
2023-08-04T20:11:01.918Z,1.80
2023-08-04T20:13:34.349Z,1.60
2023-08-04T20:16:16.454Z,1.30
2023-08-04T20:18:49.019Z,1.60
2023-08-04T20:21:23.958Z,1.80
2023-08-04T20:23:57.494Z,1.80
2023-08-04T20:26:30.073Z,1.40
2023-08-04T20:29:02.480Z,2.10
2023-08-04T20:31:35.186Z,2.10
2023-08-04T20:34:07.669Z,1.80
2023-08-04T20:36:40.025Z,1.30
2023-08-04T20:39:12.547Z,1.80
2023-08-04T20:41:45.139Z,2.30
2023-08-04T20:44:17.609Z,2.30
2023-08-04T20:46:50.374Z,1.60
2023-08-04T20:49:23.581Z,2.00
2023-08-04T20:51:56.477Z,1.80
2023-08-04T20:54:29.926Z,1.50
2023-08-04T20:57:02.439Z,1.50
2023-08-04T20:59:37.069Z,1.70
2023-08-04T21:02:10.184Z,1.80
2023-08-04T21:04:42.588Z,2.10
2023-08-04T21:07:15.018Z,1.90
2023-08-04T21:09:47.549Z,1.50
2023-08-04T21:12:20.053Z,1.50
2023-08-04T21:14:52.533Z,1.50
2023-08-04T21:17:25.309Z,1.20
2023-08-04T21:19:57.762Z,1.20
2023-08-04T21:22:30.622Z,1.90
2023-08-04T21:25:03.079Z,1.70
2023-08-04T21:27:35.602Z,1.90
2023-08-04T21:30:09.908Z,1.00
2023-08-04T21:32:42.408Z,1.10
2023-08-04T21:35:14.722Z,1.20
2023-08-04T21:37:47.168Z,1.50
2023-08-04T21:40:21.164Z,1.50
2023-08-04T21:45:27.347Z,1.30
2023-08-04T21:47:59.861Z,1.10
2023-08-04T21:53:35.423Z,1.40
2023-08-04T21:56:09.539Z,2.00
2023-08-04T21:58:42.004Z,1.40
2023-08-04T22:01:15.578Z,1.50
2023-08-04T22:03:48.025Z,1.30
2023-08-04T22:06:20.553Z,1.30
2023-08-04T22:08:54.363Z,1.10
2023-08-04T22:11:26.814Z,1.10
2023-08-04T22:13:59.285Z,1.00
2023-08-04T22:16:31.727Z,1.00
2023-08-04T22:19:04.370Z,1.30
2023-08-04T22:21:36.776Z,1.20
2023-08-04T22:24:09.470Z,1.00
2023-08-04T22:26:41.828Z,1.50
2023-08-04T22:29:14.418Z,1.30
2023-08-04T22:31:46.916Z,1.20
2023-08-04T22:34:19.364Z,1.10
2023-08-04T22:36:52.096Z,1.00
2023-08-04T22:39:24.754Z,0.70
2023-08-04T22:41:57.159Z,1.00
2023-08-04T22:44:29.642Z,1.30
2023-08-04T22:47:02.080Z,0.90
2023-08-04T22:49:34.636Z,1.40
2023-08-04T22:52:16.935Z,0.70
2023-08-04T22:54:49.973Z,0.60
2023-08-04T22:57:22.269Z,0.90
2023-08-04T22:59:57.611Z,0.90
2023-08-04T23:05:39.757Z,1.20
2023-08-04T23:08:39.003Z,1.00
2023-08-04T23:11:12.458Z,1.00
2023-08-04T23:13:44.653Z,0.90
2023-08-04T23:16:18.022Z,0.70
2023-08-04T23:18:50.410Z,0.60
2023-08-04T23:21:23.387Z,0.80
2023-08-04T23:23:57.475Z,1.30
2023-08-04T23:26:29.992Z,0.80
2023-08-04T23:29:02.458Z,0.50
2023-08-04T23:31:34.912Z,0.80
2023-08-04T23:34:07.313Z,0.80
2023-08-04T23:36:39.823Z,1.20
2023-08-04T23:39:12.258Z,0.60
2023-08-04T23:41:44.606Z,0.60
2023-08-04T23:44:17.244Z,0.90
2023-08-04T23:46:49.967Z,0.40
2023-08-04T23:49:22.598Z,0.70
2023-08-04T23:51:54.968Z,1.10
2023-08-04T23:54:27.289Z,0.90
2023-08-04T23:57:00.941Z,1.10
2023-08-04T23:59:33.327Z,1.10
